createdAt,value
2022-09-18T00:01:00.173Z,8.10
2022-09-18T00:03:28.954Z,8.00
2022-09-18T00:05:55.912Z,8.10
2022-09-18T00:08:22.835Z,8.00
2022-09-18T00:10:49.713Z,8.00
2022-09-18T00:13:16.652Z,8.10
2022-09-18T00:15:43.740Z,8.00
2022-09-18T00:18:14.722Z,8.00
2022-09-18T00:20:41.670Z,8.00
2022-09-18T00:23:08.789Z,8.00
2022-09-18T00:25:35.671Z,8.00
2022-09-18T00:28:02.683Z,8.10
2022-09-18T00:30:29.469Z,8.10
2022-09-18T00:32:56.264Z,8.00
2022-09-18T00:35:23.137Z,8.10
2022-09-18T00:37:50.151Z,8.10
2022-09-18T00:40:17.479Z,8.20
2022-09-18T00:42:44.961Z,8.20
2022-09-18T00:45:11.912Z,8.20
2022-09-18T00:47:41.406Z,8.20
2022-09-18T00:50:21.892Z,8.20
2022-09-18T00:52:58.274Z,8.20
2022-09-18T00:55:31.770Z,8.20
2022-09-18T00:58:01.154Z,8.30
2022-09-18T01:00:29.029Z,8.20
2022-09-18T01:02:56.872Z,8.10
2022-09-18T01:05:48.826Z,8.10
2022-09-18T01:08:43.745Z,8.20
2022-09-18T01:11:33.994Z,8.20
2022-09-18T01:14:09.037Z,8.20
2022-09-18T01:16:54.715Z,8.20
2022-09-18T01:19:50.161Z,8.10
2022-09-18T01:22:19.935Z,8.10
2022-09-18T01:25:07.459Z,8.10
2022-09-18T01:27:52.216Z,8.10
2022-09-18T01:30:19.252Z,8.20
2022-09-18T01:32:57.099Z,8.20
2022-09-18T01:35:43.456Z,8.20
2022-09-18T01:38:37.633Z,8.30
2022-09-18T01:41:14.543Z,8.30
2022-09-18T01:43:42.795Z,8.30
2022-09-18T01:46:14.680Z,8.30
2022-09-18T01:49:03.031Z,8.30
2022-09-18T01:51:43.270Z,8.30
2022-09-18T01:54:20.881Z,8.30
2022-09-18T01:56:59.394Z,8.30
2022-09-18T01:59:32.280Z,8.30
2022-09-18T02:02:03.862Z,8.40
2022-09-18T02:04:36.099Z,8.40
2022-09-18T02:07:14.990Z,8.40
2022-09-18T02:09:43.302Z,8.40
2022-09-18T02:12:14.333Z,8.40
2022-09-18T02:14:45.560Z,8.40
2022-09-18T02:17:43.354Z,8.30
2022-09-18T02:20:15.810Z,8.40
2022-09-18T02:22:45.817Z,8.40
2022-09-18T02:25:19.156Z,8.40
2022-09-18T02:27:48.545Z,8.40
2022-09-18T02:30:15.570Z,8.40
2022-09-18T02:32:42.496Z,8.40
2022-09-18T02:35:11.089Z,8.40
2022-09-18T02:37:58.607Z,8.50
2022-09-18T02:40:30.837Z,8.50
2022-09-18T02:43:23.855Z,8.50
2022-09-18T02:46:22.227Z,8.40
2022-09-18T02:49:10.076Z,8.40
2022-09-18T02:51:49.265Z,8.50
2022-09-18T02:54:18.973Z,8.50
2022-09-18T02:56:52.261Z,8.50
2022-09-18T02:59:36.834Z,8.50
2022-09-18T03:02:04.421Z,8.50
2022-09-18T03:04:31.428Z,8.50
2022-09-18T03:06:58.217Z,8.50
2022-09-18T03:09:26.238Z,8.60
2022-09-18T03:11:53.621Z,8.50
2022-09-18T03:14:22.891Z,8.50
2022-09-18T03:16:49.729Z,8.50
2022-09-18T03:19:19.452Z,8.60
2022-09-18T03:21:46.301Z,8.50
2022-09-18T03:24:13.325Z,8.50
2022-09-18T03:26:40.108Z,8.60
2022-09-18T03:29:10.591Z,8.60
2022-09-18T03:31:37.505Z,8.50
2022-09-18T03:34:04.497Z,8.50
2022-09-18T03:36:31.340Z,8.50
2022-09-18T03:38:58.685Z,8.60
2022-09-18T03:41:25.760Z,8.50
2022-09-18T03:43:52.699Z,8.50
2022-09-18T03:46:19.975Z,8.50
2022-09-18T03:48:46.813Z,8.50
2022-09-18T03:51:13.546Z,8.50
2022-09-18T03:53:40.546Z,8.60
2022-09-18T03:56:07.388Z,8.50
2022-09-18T03:58:34.207Z,8.50
2022-09-18T04:01:01.072Z,8.50
2022-09-18T04:03:30.094Z,8.50
2022-09-18T04:05:56.921Z,8.50
2022-09-18T04:08:23.704Z,8.50
2022-09-18T04:10:50.603Z,8.50
2022-09-18T04:13:17.456Z,8.50
2022-09-18T04:15:44.657Z,8.50
2022-09-18T04:18:11.740Z,8.50
2022-09-18T04:20:38.494Z,8.50
2022-09-18T04:23:05.330Z,8.50
2022-09-18T04:25:32.390Z,8.50
2022-09-18T04:27:59.161Z,8.60
2022-09-18T04:30:26.054Z,8.50
2022-09-18T04:32:55.050Z,8.60
2022-09-18T04:35:21.873Z,8.50
2022-09-18T04:37:48.712Z,8.60
2022-09-18T04:40:15.723Z,8.60
2022-09-18T04:42:42.718Z,8.60
2022-09-18T04:45:09.700Z,8.60
2022-09-18T04:47:36.692Z,8.60
2022-09-18T04:50:03.946Z,8.60
2022-09-18T04:52:30.716Z,8.70
2022-09-18T04:54:57.678Z,8.60
2022-09-18T04:57:24.494Z,8.60
2022-09-18T04:59:51.326Z,8.60
2022-09-18T05:02:19.453Z,8.60
2022-09-18T05:04:46.439Z,8.60
2022-09-18T05:07:13.451Z,8.60
2022-09-18T05:09:40.248Z,8.60
2022-09-18T05:12:07.257Z,8.60
2022-09-18T05:14:34.000Z,8.60
2022-09-18T05:17:00.785Z,8.60
2022-09-18T05:19:28.028Z,8.60
2022-09-18T05:21:54.832Z,8.60
2022-09-18T05:24:24.046Z,8.60
2022-09-18T05:26:50.873Z,8.60
2022-09-18T05:29:17.626Z,8.70
2022-09-18T05:31:44.507Z,8.70
2022-09-18T05:34:11.413Z,8.70
2022-09-18T05:36:38.238Z,8.60
2022-09-18T05:39:05.095Z,8.70
2022-09-18T05:41:32.132Z,8.70
2022-09-18T05:43:58.879Z,8.70
2022-09-18T05:46:25.659Z,8.70
2022-09-18T05:48:52.462Z,8.80
2022-09-18T05:51:19.289Z,8.70
2022-09-18T05:53:46.231Z,8.80
2022-09-18T05:56:12.971Z,8.80
2022-09-18T05:58:41.509Z,8.80
2022-09-18T06:01:08.644Z,8.80
2022-09-18T06:03:37.497Z,8.80
2022-09-18T06:06:04.650Z,8.80
2022-09-18T06:08:31.489Z,8.80
2022-09-18T06:11:01.599Z,8.80
2022-09-18T06:13:28.761Z,8.80
2022-09-18T06:15:55.555Z,8.70
2022-09-18T06:18:22.431Z,8.70
2022-09-18T06:20:54.628Z,8.70
2022-09-18T06:23:23.100Z,8.70
2022-09-18T06:25:56.169Z,8.80
2022-09-18T06:28:23.019Z,8.70
2022-09-18T06:30:49.722Z,8.70
2022-09-18T06:33:16.635Z,8.70
2022-09-18T06:35:43.441Z,8.70
2022-09-18T06:38:10.630Z,8.70
2022-09-18T06:40:37.504Z,8.70
2022-09-18T06:43:04.471Z,8.80
2022-09-18T06:45:31.815Z,8.80
2022-09-18T06:48:02.553Z,8.80
2022-09-18T06:50:29.393Z,8.70
2022-09-18T06:53:10.096Z,8.70
2022-09-18T06:55:39.362Z,8.70
2022-09-18T06:58:06.310Z,8.80
2022-09-18T07:00:33.253Z,8.80
2022-09-18T07:03:04.673Z,8.80
2022-09-18T07:05:32.780Z,8.80
2022-09-18T07:07:59.925Z,8.80
2022-09-18T07:10:27.221Z,8.80
2022-09-18T07:12:58.016Z,8.80
2022-09-18T07:15:26.185Z,8.80
2022-09-18T07:17:56.824Z,8.80
2022-09-18T07:20:24.034Z,8.90
2022-09-18T07:22:58.817Z,8.80
2022-09-18T07:25:27.072Z,8.90
2022-09-18T07:28:01.590Z,8.80
2022-09-18T07:30:28.370Z,8.90
2022-09-18T07:32:55.193Z,8.80
2022-09-18T07:35:24.340Z,8.80
2022-09-18T07:37:51.215Z,8.90
2022-09-18T07:40:38.533Z,8.90
2022-09-18T07:43:08.074Z,9.00
2022-09-18T07:45:35.851Z,9.00
2022-09-18T07:48:10.045Z,9.00
2022-09-18T07:50:39.927Z,9.00
2022-09-18T07:53:07.001Z,9.00
2022-09-18T07:55:36.131Z,9.10
2022-09-18T07:58:05.942Z,9.00
2022-09-18T08:00:35.926Z,9.10
2022-09-18T08:03:07.619Z,9.10
2022-09-18T08:05:41.256Z,9.10
2022-09-18T08:08:09.419Z,9.10
2022-09-18T08:10:36.799Z,9.10
2022-09-18T08:13:04.466Z,9.10
2022-09-18T08:15:32.937Z,9.10
2022-09-18T08:18:00.179Z,9.10
2022-09-18T08:20:27.234Z,9.10
2022-09-18T08:22:55.396Z,9.20
2022-09-18T08:25:22.636Z,9.10
2022-09-18T08:27:49.500Z,9.20
2022-09-18T08:30:17.899Z,9.20
2022-09-18T08:32:44.638Z,9.20
2022-09-18T08:35:11.478Z,9.30
2022-09-18T08:37:38.326Z,9.30
2022-09-18T08:40:05.563Z,9.30
2022-09-18T08:43:00.650Z,9.40
2022-09-18T08:45:39.832Z,9.40
2022-09-18T08:48:14.495Z,9.30
2022-09-18T08:50:45.185Z,9.40
2022-09-18T08:53:40.883Z,9.40
2022-09-18T08:56:14.855Z,9.50
2022-09-18T08:59:00.354Z,9.50
2022-09-18T09:01:46.809Z,9.50
2022-09-18T09:04:25.458Z,9.50
2022-09-18T09:07:05.403Z,9.60
2022-09-18T09:09:51.084Z,9.60
2022-09-18T09:12:47.513Z,9.60
2022-09-18T09:16:00.522Z,9.60
2022-09-18T09:19:01.549Z,9.70
2022-09-18T09:22:06.530Z,9.80
2022-09-18T09:24:54.929Z,9.90
2022-09-18T09:27:30.632Z,9.90
2022-09-18T09:30:05.245Z,10.00
2022-09-18T09:32:44.857Z,10.00
2022-09-18T09:35:37.350Z,10.10
2022-09-18T09:38:23.392Z,10.00
2022-09-18T09:40:53.753Z,10.10
2022-09-18T09:43:32.286Z,10.10
2022-09-18T09:46:22.550Z,10.10
2022-09-18T09:49:05.172Z,10.20
2022-09-18T09:52:09.391Z,10.30
2022-09-18T09:54:36.520Z,10.20
2022-09-18T09:57:24.260Z,10.30
2022-09-18T10:00:19.222Z,10.30
2022-09-18T10:03:20.716Z,10.30
2022-09-18T10:06:09.111Z,10.40
2022-09-18T10:08:46.662Z,10.40
2022-09-18T10:11:15.367Z,10.40
2022-09-18T10:14:11.784Z,10.50
2022-09-18T10:16:46.909Z,10.50
2022-09-18T10:19:17.530Z,10.50
2022-09-18T10:21:45.513Z,10.50
2022-09-18T10:24:21.415Z,10.50
2022-09-18T10:27:00.859Z,10.60
2022-09-18T10:29:27.944Z,10.60
2022-09-18T10:32:00.112Z,10.60
2022-09-18T10:34:31.592Z,10.60
2022-09-18T10:36:59.031Z,10.60
2022-09-18T10:39:31.582Z,10.60
2022-09-18T10:42:16.721Z,10.60
2022-09-18T10:44:48.455Z,10.50
2022-09-18T10:47:18.367Z,10.50
2022-09-18T10:50:11.034Z,10.60
2022-09-18T10:52:42.957Z,10.60
2022-09-18T10:55:14.343Z,10.60
2022-09-18T10:57:49.692Z,10.60
2022-09-18T11:00:19.304Z,10.60
2022-09-18T11:02:56.867Z,10.60
2022-09-18T11:05:27.120Z,10.60
2022-09-18T11:07:56.348Z,10.70
2022-09-18T11:10:25.670Z,10.60
2022-09-18T11:12:57.869Z,10.60
2022-09-18T11:15:27.784Z,10.60
2022-09-18T11:17:57.588Z,10.70
2022-09-18T11:20:33.403Z,10.70
2022-09-18T11:23:18.630Z,10.70
2022-09-18T11:25:46.444Z,10.80
2022-09-18T11:28:28.445Z,10.80
2022-09-18T11:31:19.768Z,10.90
2022-09-18T11:33:53.947Z,11.00
2022-09-18T11:36:27.246Z,11.00
2022-09-18T11:38:54.964Z,11.00
2022-09-18T11:41:35.088Z,11.10
2022-09-18T11:44:22.075Z,11.20
2022-09-18T11:47:27.438Z,11.40
2022-09-18T11:50:07.275Z,11.60
2022-09-18T11:52:41.746Z,11.60
2022-09-18T11:55:38.750Z,11.70
2022-09-18T11:58:45.314Z,11.80
2022-09-18T12:01:38.441Z,11.90
2022-09-18T12:04:05.307Z,12.00
2022-09-18T12:06:50.075Z,12.10
2022-09-18T12:09:35.584Z,12.00
2022-09-18T12:12:11.993Z,12.10
2022-09-18T12:15:04.841Z,12.10
2022-09-18T12:17:54.105Z,12.20
2022-09-18T12:20:28.182Z,12.30
2022-09-18T12:22:57.263Z,12.30
2022-09-18T12:25:31.803Z,12.30
2022-09-18T12:28:17.351Z,12.30
2022-09-18T12:30:47.163Z,12.30
2022-09-18T12:33:36.276Z,12.40
2022-09-18T12:36:23.740Z,12.30
2022-09-18T12:39:08.281Z,12.40
2022-09-18T12:41:58.048Z,12.40
2022-09-18T12:44:51.035Z,12.50
2022-09-18T12:47:49.166Z,12.50
2022-09-18T12:50:40.947Z,12.60
2022-09-18T12:53:35.109Z,12.60
2022-09-18T12:56:30.781Z,12.60
2022-09-18T12:58:57.531Z,12.60
2022-09-18T13:01:40.804Z,12.70
2022-09-18T13:04:29.639Z,12.80
2022-09-18T13:07:07.396Z,12.90
2022-09-18T13:10:00.879Z,12.80
2022-09-18T13:12:41.995Z,13.00
2022-09-18T13:15:23.420Z,13.00
2022-09-18T13:17:55.202Z,13.00
2022-09-18T13:20:33.994Z,13.00
2022-09-18T13:23:01.458Z,13.00
2022-09-18T13:25:37.636Z,13.00
2022-09-18T13:28:11.788Z,13.20
2022-09-18T13:30:39.068Z,13.20
2022-09-18T13:33:06.115Z,13.30
2022-09-18T13:35:35.886Z,13.40
2022-09-18T13:38:08.814Z,13.30
2022-09-18T13:40:40.224Z,13.30
2022-09-18T13:43:42.659Z,13.30
2022-09-18T13:46:28.051Z,13.30
2022-09-18T13:48:55.356Z,13.40
2022-09-18T13:51:31.267Z,13.30
2022-09-18T13:54:27.842Z,13.20
2022-09-18T13:57:03.963Z,13.10
2022-09-18T13:59:59.532Z,13.10
2022-09-18T14:02:32.886Z,13.10
2022-09-18T14:05:07.429Z,13.20
2022-09-18T14:07:34.162Z,13.10
2022-09-18T14:10:09.276Z,13.00
2022-09-18T14:12:36.299Z,13.00
2022-09-18T14:15:20.701Z,13.00
2022-09-18T14:18:07.535Z,12.90
2022-09-18T14:20:37.938Z,12.90
2022-09-18T14:23:34.084Z,13.00
2022-09-18T14:26:08.993Z,13.10
2022-09-18T14:28:36.453Z,13.20
2022-09-18T14:31:10.965Z,13.10
2022-09-18T14:33:38.093Z,13.10
2022-09-18T14:36:09.931Z,13.10
2022-09-18T14:38:39.005Z,13.10
2022-09-18T14:41:35.274Z,13.10
2022-09-18T14:44:03.466Z,13.00
2022-09-18T14:46:35.030Z,13.00
2022-09-18T14:49:01.881Z,13.00
2022-09-18T14:51:44.834Z,12.90
2022-09-18T14:54:24.617Z,12.80
2022-09-18T14:56:56.091Z,12.90
2022-09-18T14:59:23.753Z,12.90
2022-09-18T15:01:51.418Z,12.80
2022-09-18T15:04:23.815Z,12.70
2022-09-18T15:06:53.312Z,12.70
2022-09-18T15:09:32.994Z,12.70
2022-09-18T15:12:03.127Z,12.60
2022-09-18T15:14:42.777Z,12.60
2022-09-18T15:17:23.666Z,12.60
2022-09-18T15:20:01.317Z,12.60
2022-09-18T15:22:30.056Z,12.60
2022-09-18T15:24:56.958Z,12.50
2022-09-18T15:27:24.498Z,12.50
2022-09-18T15:30:02.773Z,12.50
2022-09-18T15:32:38.627Z,12.50
2022-09-18T15:35:07.528Z,12.50
2022-09-18T15:37:34.911Z,12.40
2022-09-18T15:40:06.905Z,12.40
2022-09-18T15:42:36.649Z,12.40
2022-09-18T15:45:06.132Z,12.40
2022-09-18T15:47:35.559Z,12.30
2022-09-18T15:50:28.891Z,12.30
2022-09-18T15:52:55.665Z,12.40
2022-09-18T15:55:27.894Z,12.30
2022-09-18T15:57:58.675Z,12.30
2022-09-18T16:00:31.866Z,12.30
2022-09-18T16:03:01.468Z,12.30
2022-09-18T16:05:30.769Z,12.30
2022-09-18T16:08:22.582Z,12.30
2022-09-18T16:10:52.388Z,12.30
2022-09-18T16:13:19.101Z,12.30
2022-09-18T16:15:46.629Z,12.30
2022-09-18T16:18:16.366Z,12.30
2022-09-18T16:20:50.376Z,12.20
2022-09-18T16:23:18.892Z,12.20
2022-09-18T16:26:00.033Z,12.20
2022-09-18T16:28:28.653Z,12.10
2022-09-18T16:30:58.319Z,12.10
2022-09-18T16:33:27.857Z,12.10
2022-09-18T16:36:06.660Z,12.10
2022-09-18T16:38:34.668Z,12.10
2022-09-18T16:41:01.900Z,12.10
2022-09-18T16:43:28.823Z,12.10
2022-09-18T16:45:55.646Z,12.00
2022-09-18T16:48:24.381Z,12.00
2022-09-18T16:50:51.114Z,12.00
2022-09-18T16:53:18.081Z,12.00
2022-09-18T16:55:49.821Z,12.00
2022-09-18T16:58:20.252Z,11.80
2022-09-18T17:00:47.119Z,11.80
2022-09-18T17:03:14.415Z,11.80
2022-09-18T17:05:41.276Z,11.80
2022-09-18T17:08:08.059Z,11.80
2022-09-18T17:10:35.032Z,11.80
2022-09-18T17:13:02.126Z,11.70
2022-09-18T17:15:29.262Z,11.70
2022-09-18T17:17:56.881Z,11.70
2022-09-18T17:20:23.757Z,11.70
2022-09-18T17:22:50.496Z,11.70
2022-09-18T17:25:17.404Z,11.60
2022-09-18T17:27:44.108Z,11.60
2022-09-18T17:30:11.762Z,11.60
2022-09-18T17:32:38.684Z,11.50
2022-09-18T17:35:05.937Z,11.50
2022-09-18T17:37:32.677Z,11.50
2022-09-18T17:39:59.482Z,11.60
2022-09-18T17:42:26.762Z,11.50
2022-09-18T17:44:53.674Z,11.50
2022-09-18T17:47:20.451Z,11.50
2022-09-18T17:49:47.187Z,11.50
2022-09-18T17:52:14.411Z,11.40
2022-09-18T17:54:41.228Z,11.40
2022-09-18T17:57:08.125Z,11.30
2022-09-18T17:59:36.168Z,11.30
2022-09-18T18:02:03.038Z,11.30
2022-09-18T18:04:30.184Z,11.30
2022-09-18T18:06:57.046Z,11.30
2022-09-18T18:09:23.870Z,11.40
2022-09-18T18:11:50.714Z,11.30
2022-09-18T18:14:18.085Z,11.30
2022-09-18T18:16:44.853Z,11.30
2022-09-18T18:19:12.792Z,11.30
2022-09-18T18:21:41.778Z,11.30
2022-09-18T18:24:14.146Z,11.30
2022-09-18T18:26:41.301Z,11.30
2022-09-18T18:29:10.167Z,11.20
2022-09-18T18:31:38.805Z,11.30
2022-09-18T18:34:05.773Z,11.30
2022-09-18T18:36:33.075Z,11.20
2022-09-18T18:39:01.534Z,11.20
2022-09-18T18:41:29.911Z,11.30
2022-09-18T18:43:58.972Z,11.30
2022-09-18T18:46:28.071Z,11.20
2022-09-18T18:48:59.783Z,11.20
2022-09-18T18:51:26.666Z,11.20
2022-09-18T18:53:57.197Z,11.20
2022-09-18T18:56:24.033Z,11.20
2022-09-18T18:58:58.893Z,11.20
2022-09-18T19:01:25.980Z,11.20
2022-09-18T19:03:55.552Z,11.10
2022-09-18T19:06:23.466Z,11.10
2022-09-18T19:08:56.031Z,11.20
2022-09-18T19:11:22.935Z,11.10
2022-09-18T19:13:51.763Z,11.10
2022-09-18T19:16:18.916Z,11.10
2022-09-18T19:18:53.902Z,11.10
2022-09-18T19:21:21.993Z,11.10
2022-09-18T19:23:53.247Z,11.10
2022-09-18T19:26:24.258Z,11.10
2022-09-18T19:28:53.774Z,11.10
2022-09-18T19:31:21.582Z,11.20
2022-09-18T19:33:49.531Z,11.20
2022-09-18T19:36:16.857Z,11.20
2022-09-18T19:38:43.765Z,11.20
2022-09-18T19:41:22.990Z,11.20
2022-09-18T19:43:49.897Z,11.20
2022-09-18T19:46:23.386Z,11.20
2022-09-18T19:48:50.831Z,11.10
2022-09-18T19:51:17.688Z,11.20
2022-09-18T19:53:44.615Z,11.20
2022-09-18T19:56:27.529Z,11.20
2022-09-18T19:58:58.483Z,11.20
2022-09-18T20:01:25.645Z,11.20
2022-09-18T20:03:53.299Z,11.20
2022-09-18T20:06:20.533Z,11.20
2022-09-18T20:08:47.369Z,11.20
2022-09-18T20:11:14.235Z,11.20
2022-09-18T20:13:41.047Z,11.20
2022-09-18T20:16:09.577Z,11.20
2022-09-18T20:18:36.665Z,11.30
2022-09-18T20:21:15.077Z,11.30
2022-09-18T20:23:42.032Z,11.30
2022-09-18T20:26:11.146Z,11.30
2022-09-18T20:28:38.379Z,11.30
2022-09-18T20:31:11.119Z,11.30
2022-09-18T20:33:38.514Z,11.30
2022-09-18T20:36:07.401Z,11.20
2022-09-18T20:38:36.898Z,11.30
2022-09-18T20:41:09.978Z,11.30
2022-09-18T20:43:36.767Z,11.20
2022-09-18T20:46:05.816Z,11.30
2022-09-18T20:48:38.530Z,11.30
2022-09-18T20:51:07.076Z,11.20
2022-09-18T20:53:33.929Z,11.20
2022-09-18T20:56:01.084Z,11.20
2022-09-18T20:58:27.920Z,11.10
2022-09-18T21:00:54.914Z,11.10
2022-09-18T21:03:21.715Z,11.10
2022-09-18T21:05:59.021Z,10.90
2022-09-18T21:08:34.464Z,10.90
2022-09-18T21:11:04.452Z,10.80
2022-09-18T21:13:31.204Z,10.80
2022-09-18T21:15:59.148Z,10.80
2022-09-18T21:18:26.003Z,10.80
2022-09-18T21:21:04.922Z,10.80
2022-09-18T21:23:32.984Z,10.80
2022-09-18T21:25:59.838Z,10.70
2022-09-18T21:28:26.688Z,10.70
2022-09-18T21:30:53.433Z,10.70
2022-09-18T21:33:20.261Z,10.70
2022-09-18T21:35:53.057Z,10.70
2022-09-18T21:38:19.876Z,10.70
2022-09-18T21:40:46.738Z,10.60
2022-09-18T21:43:13.666Z,10.60
2022-09-18T21:45:40.407Z,10.60
2022-09-18T21:48:07.252Z,10.60
2022-09-18T21:50:35.331Z,10.60
2022-09-18T21:53:02.168Z,10.60
2022-09-18T21:55:29.214Z,10.60
2022-09-18T21:57:55.951Z,10.60
2022-09-18T22:00:22.778Z,10.60
2022-09-18T22:02:49.537Z,10.60
2022-09-18T22:05:16.376Z,10.50
2022-09-18T22:07:43.230Z,10.50
2022-09-18T22:10:12.398Z,10.50
2022-09-18T22:12:39.202Z,10.50
2022-09-18T22:15:06.518Z,10.50
2022-09-18T22:17:33.346Z,10.40
2022-09-18T22:20:00.102Z,10.40
2022-09-18T22:22:27.035Z,10.50
2022-09-18T22:24:53.974Z,10.50
2022-09-18T22:27:20.829Z,10.50
2022-09-18T22:29:47.678Z,10.40
2022-09-18T22:32:14.511Z,10.40
2022-09-18T22:34:41.556Z,10.40
2022-09-18T22:37:09.929Z,10.30
2022-09-18T22:39:36.784Z,10.40
2022-09-18T22:42:03.711Z,10.50
2022-09-18T22:44:30.468Z,10.50
2022-09-18T22:46:57.245Z,10.40
2022-09-18T22:49:24.055Z,10.40
2022-09-18T22:51:51.795Z,10.40
2022-09-18T22:54:23.576Z,10.40
2022-09-18T22:56:51.060Z,10.30
2022-09-18T22:59:20.399Z,10.20
2022-09-18T23:02:02.435Z,10.20
2022-09-18T23:04:31.221Z,10.20
2022-09-18T23:06:59.220Z,10.10
2022-09-18T23:09:26.708Z,10.20
2022-09-18T23:11:53.660Z,10.10
2022-09-18T23:14:23.261Z,10.20
2022-09-18T23:16:50.419Z,9.90
2022-09-18T23:19:21.055Z,9.80
2022-09-18T23:21:47.883Z,9.70
2022-09-18T23:24:14.743Z,9.60
2022-09-18T23:26:43.722Z,9.70
2022-09-18T23:29:13.939Z,9.60
2022-09-18T23:31:44.130Z,9.70
2022-09-18T23:34:16.743Z,9.60
2022-09-18T23:36:46.775Z,9.70
2022-09-18T23:39:21.393Z,9.70
2022-09-18T23:41:48.617Z,9.70
2022-09-18T23:44:17.641Z,9.50
2022-09-18T23:46:46.762Z,9.60
2022-09-18T23:49:14.887Z,9.60
2022-09-18T23:51:45.622Z,9.60
2022-09-18T23:54:19.042Z,9.60
2022-09-18T23:56:46.566Z,9.60
2022-09-18T23:59:14.536Z,9.50
